createdAt,value
2022-09-09T00:00:27.657Z,84.97
2022-09-09T00:01:27.643Z,84.97
2022-09-09T00:02:27.820Z,85.25
2022-09-09T00:03:27.719Z,85.54
2022-09-09T00:04:27.602Z,85.54
2022-09-09T00:05:27.600Z,85.74
2022-09-09T00:06:27.599Z,85.64
2022-09-09T00:07:27.561Z,85.54
2022-09-09T00:08:27.548Z,85.45
2022-09-09T00:09:27.531Z,85.54
2022-09-09T00:10:27.522Z,85.93
2022-09-09T00:11:31.323Z,85.35
2022-09-09T00:12:27.490Z,85.64
2022-09-09T00:13:27.476Z,86.12
2022-09-09T00:14:27.461Z,85.54
2022-09-09T00:15:27.501Z,85.54
2022-09-09T00:16:27.434Z,85.54
2022-09-09T00:17:27.417Z,85.74
2022-09-09T00:18:27.407Z,86.21
2022-09-09T00:19:27.391Z,86.12
2022-09-09T00:20:27.379Z,86.41
2022-09-09T00:21:27.367Z,86.02
2022-09-09T00:22:27.348Z,86.60
2022-09-09T00:23:27.335Z,86.60
2022-09-09T00:24:27.321Z,86.50
2022-09-09T00:25:27.310Z,86.69
2022-09-09T00:26:27.300Z,86.79
2022-09-09T00:27:27.279Z,87.08
2022-09-09T00:28:27.264Z,86.98
2022-09-09T00:29:27.250Z,87.27
2022-09-09T00:30:27.236Z,86.98
2022-09-09T00:31:27.288Z,86.69
2022-09-09T00:32:27.206Z,87.08
2022-09-09T00:33:27.198Z,87.17
2022-09-09T00:34:27.183Z,87.17
2022-09-09T00:35:27.170Z,87.08
2022-09-09T00:36:27.151Z,87.37
2022-09-09T00:37:27.137Z,87.74
2022-09-09T00:38:27.128Z,87.37
2022-09-09T00:39:27.110Z,87.46
2022-09-09T00:40:27.096Z,86.88
2022-09-09T00:41:27.081Z,86.98
2022-09-09T00:42:27.069Z,87.08
2022-09-09T00:43:27.054Z,87.46
2022-09-09T00:44:27.041Z,86.98
2022-09-09T00:45:27.026Z,87.74
2022-09-09T00:46:27.079Z,87.46
2022-09-09T00:47:27.009Z,87.46
2022-09-09T00:48:26.982Z,87.74
2022-09-09T00:49:26.968Z,87.65
2022-09-09T00:50:26.957Z,87.74
2022-09-09T00:51:26.942Z,87.27
2022-09-09T00:52:26.931Z,87.74
2022-09-09T00:53:26.911Z,87.27
2022-09-09T00:54:26.896Z,87.08
2022-09-09T00:55:26.885Z,87.65
2022-09-09T00:56:26.869Z,87.55
2022-09-09T00:57:26.855Z,87.65
2022-09-09T00:58:26.843Z,86.93
2022-09-09T00:59:28.583Z,87.21
2022-09-09T01:00:26.821Z,87.46
2022-09-09T01:01:26.850Z,86.64
2022-09-09T01:02:26.837Z,87.12
2022-09-09T01:03:26.774Z,87.41
2022-09-09T01:04:26.760Z,86.79
2022-09-09T01:05:26.744Z,87.12
2022-09-09T01:06:26.734Z,86.83
2022-09-09T01:07:26.713Z,86.93
2022-09-09T01:08:26.705Z,87.12
2022-09-09T01:09:26.687Z,87.21
2022-09-09T01:10:26.672Z,87.31
2022-09-09T01:11:26.659Z,87.02
2022-09-09T01:12:26.652Z,86.93
2022-09-09T01:13:26.629Z,87.02
2022-09-09T01:14:26.615Z,87.02
2022-09-09T01:15:26.605Z,86.93
2022-09-09T01:16:26.648Z,87.12
2022-09-09T01:17:26.578Z,86.83
2022-09-09T01:18:26.558Z,86.74
2022-09-09T01:19:26.559Z,87.31
2022-09-09T01:20:26.533Z,86.93
2022-09-09T01:21:26.522Z,86.54
2022-09-09T01:22:26.512Z,86.83
2022-09-09T01:23:26.491Z,86.83
2022-09-09T01:24:26.479Z,86.74
2022-09-09T01:25:26.462Z,86.45
2022-09-09T01:26:26.451Z,86.83
2022-09-09T01:27:26.436Z,87.12
2022-09-09T01:28:26.419Z,87.21
2022-09-09T01:29:26.406Z,86.74
2022-09-09T01:30:26.475Z,86.74
2022-09-09T01:31:26.379Z,86.98
2022-09-09T01:32:26.364Z,87.12
2022-09-09T01:33:34.103Z,87.31
2022-09-09T01:35:30.879Z,87.02
2022-09-09T01:36:30.830Z,87.08
2022-09-09T01:38:34.921Z,87.17
2022-09-09T01:39:34.812Z,86.98
2022-09-09T01:41:38.786Z,87.46
2022-09-09T01:42:38.711Z,87.46
2022-09-09T01:44:31.648Z,87.37
2022-09-09T01:45:31.577Z,87.27
2022-09-09T01:47:35.551Z,87.17
2022-09-09T01:48:35.628Z,87.65
2022-09-09T01:50:39.517Z,87.74
2022-09-09T01:51:39.484Z,86.98
2022-09-09T01:53:43.461Z,87.46
2022-09-09T01:54:43.422Z,87.55
2022-09-09T01:56:47.899Z,87.08
2022-09-09T01:57:47.874Z,87.55
2022-09-09T01:58:47.856Z,87.94
2022-09-09T01:59:47.887Z,87.46
2022-09-09T02:00:47.877Z,87.55
2022-09-09T02:01:47.823Z,88.32
2022-09-09T02:02:47.822Z,88.03
2022-09-09T02:03:47.791Z,88.51
2022-09-09T02:04:47.775Z,88.61
2022-09-09T02:05:47.761Z,88.42
2022-09-09T02:06:47.746Z,88.61
2022-09-09T02:07:47.733Z,89.28
2022-09-09T02:08:47.719Z,88.70
2022-09-09T02:09:47.705Z,89.18
2022-09-09T02:10:47.689Z,89.18
2022-09-09T02:11:47.676Z,89.47
2022-09-09T02:12:47.660Z,89.09
2022-09-09T02:13:47.646Z,89.28
2022-09-09T02:14:47.631Z,89.37
2022-09-09T02:15:47.618Z,89.47
2022-09-09T02:16:47.639Z,89.66
2022-09-09T02:17:47.590Z,88.99
2022-09-09T02:18:47.576Z,89.86
2022-09-09T02:19:47.569Z,89.57
2022-09-09T02:20:47.547Z,89.66
2022-09-09T02:21:47.536Z,89.09
2022-09-09T02:22:47.561Z,89.86
2022-09-09T02:23:47.505Z,89.76
2022-09-09T02:24:47.493Z,89.66
2022-09-09T02:25:47.478Z,89.33
2022-09-09T02:26:47.463Z,89.66
2022-09-09T02:27:47.448Z,90.29
2022-09-09T02:28:47.435Z,90.23
2022-09-09T02:29:47.422Z,90.33
2022-09-09T02:30:47.427Z,90.33
2022-09-09T02:31:47.399Z,90.23
2022-09-09T02:32:47.376Z,90.23
2022-09-09T02:33:47.362Z,90.05
2022-09-09T02:34:47.349Z,90.14
2022-09-09T02:35:47.337Z,90.33
2022-09-09T02:36:47.326Z,90.14
2022-09-09T02:37:47.306Z,90.23
2022-09-09T02:38:47.294Z,90.53
2022-09-09T02:39:47.342Z,90.14
2022-09-09T02:40:47.265Z,91.19
2022-09-09T02:41:47.251Z,90.05
2022-09-09T02:42:47.238Z,90.53
2022-09-09T02:43:47.222Z,90.81
2022-09-09T02:44:47.208Z,90.23
2022-09-09T02:45:47.241Z,90.14
2022-09-09T02:46:47.181Z,90.05
2022-09-09T02:47:47.165Z,90.23
2022-09-09T02:48:47.153Z,90.91
2022-09-09T02:49:47.137Z,90.53
2022-09-09T02:50:47.125Z,90.33
2022-09-09T02:51:47.108Z,90.81
2022-09-09T02:52:47.096Z,91.58
2022-09-09T02:53:47.081Z,91.39
2022-09-09T02:54:47.065Z,91.92
2022-09-09T02:55:47.052Z,91.49
2022-09-09T02:56:47.038Z,91.53
2022-09-09T02:57:47.025Z,91.58
2022-09-09T02:58:47.015Z,91.49
2022-09-09T02:59:46.996Z,92.06
2022-09-09T03:00:46.997Z,91.96
2022-09-09T03:01:46.969Z,92.15
2022-09-09T03:02:46.980Z,92.11
2022-09-09T03:03:46.936Z,92.11
2022-09-09T03:04:46.924Z,92.01
2022-09-09T03:05:46.911Z,92.21
2022-09-09T03:06:46.895Z,92.87
2022-09-09T03:07:46.881Z,92.21
2022-09-09T03:08:49.520Z,92.30
2022-09-09T03:09:46.853Z,93.16
2022-09-09T03:10:46.838Z,92.21
2022-09-09T03:11:46.823Z,92.01
2022-09-09T03:12:46.817Z,93.07
2022-09-09T03:13:46.796Z,92.40
2022-09-09T03:14:46.781Z,92.49
2022-09-09T03:15:46.768Z,92.01
2022-09-09T03:16:46.824Z,92.21
2022-09-09T03:17:46.748Z,92.49
2022-09-09T03:18:46.725Z,93.07
2022-09-09T03:19:46.726Z,92.40
2022-09-09T03:20:46.704Z,92.30
2022-09-09T03:21:46.684Z,93.07
2022-09-09T03:22:46.667Z,93.07
2022-09-09T03:23:46.661Z,92.21
2022-09-09T03:24:46.641Z,92.87
2022-09-09T03:25:46.637Z,92.97
2022-09-09T03:26:46.610Z,92.97
2022-09-09T03:27:46.595Z,93.16
2022-09-09T03:28:46.583Z,92.58
2022-09-09T03:29:46.568Z,92.87
2022-09-09T03:30:46.565Z,92.78
2022-09-09T03:31:46.619Z,91.92
2022-09-09T03:32:48.980Z,92.40
2022-09-09T03:33:46.536Z,92.30
2022-09-09T03:34:46.496Z,92.97
2022-09-09T03:35:46.482Z,93.35
2022-09-09T03:36:46.467Z,93.26
2022-09-09T03:37:46.453Z,92.97
2022-09-09T03:38:46.436Z,93.35
2022-09-09T03:39:46.494Z,93.45
2022-09-09T03:40:46.411Z,93.45
2022-09-09T03:41:46.412Z,93.35
2022-09-09T03:42:46.379Z,93.45
2022-09-09T03:43:46.377Z,93.35
2022-09-09T03:44:46.355Z,93.93
2022-09-09T03:45:46.356Z,93.83
2022-09-09T03:46:46.325Z,92.87
2022-09-09T03:47:46.309Z,93.64
2022-09-09T03:48:46.302Z,94.12
2022-09-09T03:49:46.290Z,93.93
2022-09-09T03:50:46.266Z,93.74
2022-09-09T03:51:46.259Z,93.93
2022-09-09T03:52:46.237Z,94.36
2022-09-09T03:53:46.222Z,93.79
2022-09-09T03:54:46.207Z,93.83
2022-09-09T03:55:46.192Z,93.93
2022-09-09T03:56:46.203Z,94.07
2022-09-09T03:57:46.165Z,93.64
2022-09-09T03:58:46.151Z,94.02
2022-09-09T03:59:46.137Z,94.26
2022-09-09T04:00:46.302Z,94.26
2022-09-09T04:01:46.158Z,95.12
2022-09-09T04:02:46.093Z,95.12
2022-09-09T04:03:46.080Z,94.26
2022-09-09T04:04:46.075Z,94.36
2022-09-09T04:05:46.053Z,94.93
2022-09-09T04:06:46.040Z,95.12
2022-09-09T04:07:46.022Z,94.45
2022-09-09T04:08:46.017Z,94.17
2022-09-09T04:09:45.995Z,94.26
2022-09-09T04:10:45.998Z,94.36
2022-09-09T04:11:45.963Z,94.84
2022-09-09T04:12:49.417Z,95.03
2022-09-09T04:13:45.935Z,95.03
2022-09-09T04:14:45.919Z,95.51
2022-09-09T04:15:45.907Z,95.31
2022-09-09T04:16:46.096Z,95.70
2022-09-09T04:17:45.878Z,95.41
2022-09-09T04:18:45.861Z,95.98
2022-09-09T04:19:45.846Z,95.89
2022-09-09T04:20:45.836Z,96.27
2022-09-09T04:21:45.820Z,96.08
2022-09-09T04:22:45.806Z,95.51
2022-09-09T04:23:45.792Z,96.37
2022-09-09T04:24:48.813Z,95.89
2022-09-09T04:25:45.761Z,96.08
2022-09-09T04:26:45.750Z,95.70
2022-09-09T04:27:45.734Z,95.89
2022-09-09T04:28:45.718Z,96.22
2022-09-09T04:29:45.702Z,96.61
2022-09-09T04:30:45.687Z,96.56
2022-09-09T04:31:45.758Z,96.61
2022-09-09T04:32:45.691Z,96.70
2022-09-09T04:33:45.643Z,96.13
2022-09-09T04:34:45.634Z,96.89
2022-09-09T04:35:45.615Z,96.51
2022-09-09T04:36:45.602Z,97.08
2022-09-09T04:37:45.585Z,97.04
2022-09-09T04:38:45.576Z,96.61
2022-09-09T04:39:45.594Z,97.66
2022-09-09T04:40:45.558Z,97.75
2022-09-09T04:41:45.530Z,97.52
2022-09-09T04:42:45.513Z,97.18
2022-09-09T04:43:45.499Z,97.75
2022-09-09T04:44:45.485Z,97.47
2022-09-09T04:45:45.494Z,97.66
2022-09-09T04:46:45.547Z,97.47
2022-09-09T04:47:45.450Z,97.37
2022-09-09T04:48:45.639Z,97.56
2022-09-09T04:49:45.414Z,97.37
2022-09-09T04:50:45.399Z,97.85
2022-09-09T04:51:45.380Z,98.24
2022-09-09T04:52:45.366Z,97.95
2022-09-09T04:53:45.353Z,97.85
2022-09-09T04:54:45.338Z,98.04
2022-09-09T04:55:45.324Z,97.95
2022-09-09T04:56:45.310Z,97.75
2022-09-09T04:57:45.303Z,97.75
2022-09-09T04:58:45.283Z,98.14
2022-09-09T04:59:45.273Z,97.85
2022-09-09T05:00:45.322Z,98.61
2022-09-09T05:01:45.277Z,99.48
2022-09-09T05:02:45.259Z,98.71
2022-09-09T05:03:45.207Z,98.90
2022-09-09T05:04:45.248Z,98.90
2022-09-09T05:05:45.189Z,99.19
2022-09-09T05:06:45.162Z,99.76
2022-09-09T05:07:45.146Z,99.00
2022-09-09T05:08:45.154Z,99.10
2022-09-09T05:09:45.135Z,99.00
2022-09-09T05:10:45.104Z,99.19
2022-09-09T05:11:45.090Z,98.71
2022-09-09T05:12:45.073Z,98.81
2022-09-09T05:13:45.068Z,98.52
2022-09-09T05:14:45.049Z,99.19
2022-09-09T05:15:45.031Z,98.52
2022-09-09T05:16:45.085Z,99.29
2022-09-09T05:17:45.001Z,99.33
2022-09-09T05:18:44.998Z,99.52
2022-09-09T05:19:44.972Z,99.33
2022-09-09T05:20:44.964Z,98.76
2022-09-09T05:21:44.944Z,98.38
2022-09-09T05:22:44.926Z,98.19
2022-09-09T05:23:44.911Z,98.28
2022-09-09T05:24:44.904Z,98.09
2022-09-09T05:25:44.910Z,98.19
2022-09-09T05:26:44.878Z,97.71
2022-09-09T05:27:44.852Z,97.71
2022-09-09T05:28:44.842Z,97.33
2022-09-09T05:29:44.832Z,97.52
2022-09-09T05:30:44.814Z,97.23
2022-09-09T05:31:44.871Z,97.23
2022-09-09T05:32:44.781Z,97.71
2022-09-09T05:33:44.769Z,97.80
2022-09-09T05:34:44.772Z,97.33
2022-09-09T05:35:44.739Z,97.61
2022-09-09T05:36:44.725Z,97.04
2022-09-09T05:37:44.709Z,96.94
2022-09-09T05:38:44.697Z,97.13
2022-09-09T05:39:44.728Z,96.47
2022-09-09T05:40:44.678Z,96.80
2022-09-09T05:41:44.678Z,96.47
2022-09-09T05:42:44.649Z,96.32
2022-09-09T05:43:44.626Z,96.51
2022-09-09T05:44:44.621Z,96.13
2022-09-09T05:45:44.598Z,96.32
2022-09-09T05:46:44.637Z,96.42
2022-09-09T05:47:44.570Z,96.51
2022-09-09T05:48:44.554Z,96.32
2022-09-09T05:49:44.534Z,96.51
2022-09-09T05:50:44.539Z,96.03
2022-09-09T05:51:44.506Z,95.94
2022-09-09T05:52:44.577Z,96.13
2022-09-09T05:53:44.477Z,95.75
2022-09-09T05:54:44.466Z,96.13
2022-09-09T05:55:44.449Z,96.22
2022-09-09T05:56:46.904Z,96.13
2022-09-09T05:57:44.417Z,96.13
2022-09-09T05:58:44.416Z,96.22
2022-09-09T05:59:44.390Z,96.22
2022-09-09T06:00:44.392Z,96.22
2022-09-09T06:01:44.532Z,96.22
2022-09-09T06:02:44.457Z,96.22
2022-09-09T06:03:44.330Z,96.42
2022-09-09T06:04:44.318Z,96.70
2022-09-09T06:05:44.302Z,96.42
2022-09-09T06:06:44.294Z,96.42
2022-09-09T06:07:44.280Z,96.13
2022-09-09T06:08:44.277Z,96.32
2022-09-09T06:09:44.252Z,96.70
2022-09-09T06:10:44.229Z,96.61
2022-09-09T06:11:44.220Z,96.22
2022-09-09T06:12:44.207Z,96.32
2022-09-09T06:13:44.191Z,96.51
2022-09-09T06:14:46.409Z,96.42
2022-09-09T06:15:44.162Z,96.51
2022-09-09T06:16:44.190Z,96.18
2022-09-09T06:17:44.133Z,96.27
2022-09-09T06:18:44.117Z,95.60
2022-09-09T06:19:44.104Z,95.41
2022-09-09T06:20:44.091Z,95.12
2022-09-09T06:21:44.073Z,95.12
2022-09-09T06:22:44.060Z,95.17
2022-09-09T06:23:44.044Z,94.79
2022-09-09T06:24:44.032Z,94.59
2022-09-09T06:25:44.018Z,94.40
2022-09-09T06:26:44.000Z,94.21
2022-09-09T06:27:43.989Z,94.21
2022-09-09T06:28:43.978Z,93.73
2022-09-09T06:29:43.960Z,93.35
2022-09-09T06:30:43.951Z,93.54
2022-09-09T06:31:44.004Z,93.35
2022-09-09T06:32:43.919Z,93.44
2022-09-09T06:33:43.905Z,93.11
2022-09-09T06:34:43.892Z,93.21
2022-09-09T06:35:43.874Z,93.11
2022-09-09T06:36:43.862Z,93.01
2022-09-09T06:37:43.849Z,93.30
2022-09-09T06:38:43.836Z,92.72
2022-09-09T06:39:43.847Z,91.96
2022-09-09T06:40:43.817Z,92.15
2022-09-09T06:41:44.048Z,92.05
2022-09-09T06:42:43.779Z,92.05
2022-09-09T06:43:43.763Z,91.67
2022-09-09T06:44:43.750Z,92.63
2022-09-09T06:45:43.740Z,91.57
2022-09-09T06:46:43.753Z,92.24
2022-09-09T06:47:43.711Z,92.48
2022-09-09T06:48:43.698Z,91.62
2022-09-09T06:49:46.566Z,91.72
2022-09-09T06:50:43.685Z,91.05
2022-09-09T06:51:44.049Z,91.14
2022-09-09T06:52:43.654Z,91.42
2022-09-09T06:53:43.630Z,90.95
2022-09-09T06:54:43.615Z,91.14
2022-09-09T06:55:43.598Z,91.24
2022-09-09T06:56:43.601Z,91.24
2022-09-09T06:57:43.573Z,90.95
2022-09-09T06:58:43.558Z,90.18
2022-09-09T06:59:43.546Z,90.37
2022-09-09T07:00:43.624Z,89.70
2022-09-09T07:01:43.549Z,90.18
2022-09-09T07:02:43.509Z,89.70
2022-09-09T07:03:43.497Z,89.46
2022-09-09T07:04:43.487Z,89.26
2022-09-09T07:05:43.464Z,89.26
2022-09-09T07:06:43.451Z,88.98
2022-09-09T07:07:43.439Z,89.36
2022-09-09T07:08:51.705Z,88.79
2022-09-09T07:09:43.412Z,88.49
2022-09-09T07:10:43.398Z,88.40
2022-09-09T07:11:43.385Z,89.07
2022-09-09T07:12:43.375Z,88.98
2022-09-09T07:13:43.357Z,88.79
2022-09-09T07:14:43.353Z,89.22
2022-09-09T07:15:43.361Z,88.98
2022-09-09T07:16:43.318Z,89.03
2022-09-09T07:17:43.311Z,89.51
2022-09-09T07:18:43.294Z,89.51
2022-09-09T07:19:43.301Z,89.41
2022-09-09T07:20:43.263Z,89.22
2022-09-09T07:21:43.257Z,89.51
2022-09-09T07:22:43.242Z,89.41
2022-09-09T07:23:43.234Z,89.79
2022-09-09T07:24:43.212Z,89.70
2022-09-09T07:25:43.200Z,89.70
2022-09-09T07:26:43.182Z,90.47
2022-09-09T07:27:43.171Z,90.37
2022-09-09T07:28:43.159Z,90.08
2022-09-09T07:29:43.146Z,90.28
2022-09-09T07:30:43.131Z,90.37
2022-09-09T07:31:43.137Z,90.18
2022-09-09T07:32:43.103Z,89.89
2022-09-09T07:33:43.091Z,90.37
2022-09-09T07:34:43.085Z,90.28
2022-09-09T07:35:43.061Z,89.61
2022-09-09T07:36:43.050Z,89.99
2022-09-09T07:37:51.217Z,90.18
2022-09-09T07:39:47.557Z,89.79
2022-09-09T07:40:47.459Z,89.61
2022-09-09T07:42:51.914Z,89.32
2022-09-09T07:43:51.883Z,89.32
2022-09-09T07:45:56.326Z,89.41
2022-09-09T07:46:56.344Z,89.03
2022-09-09T07:47:56.291Z,89.03
2022-09-09T07:48:56.280Z,89.32
2022-09-09T07:49:56.265Z,89.61
2022-09-09T07:50:56.252Z,89.61
2022-09-09T07:51:56.293Z,89.41
2022-09-09T07:52:57.605Z,89.32
2022-09-09T07:53:56.215Z,89.41
2022-09-09T07:54:56.200Z,89.41
2022-09-09T07:55:56.190Z,89.51
2022-09-09T07:56:56.170Z,89.51
2022-09-09T07:57:56.159Z,89.89
2022-09-09T07:58:56.150Z,90.37
2022-09-09T07:59:56.132Z,90.18
2022-09-09T08:00:56.120Z,90.47
2022-09-09T08:01:56.208Z,91.24
2022-09-09T08:02:56.145Z,90.90
2022-09-09T08:03:56.715Z,91.33
2022-09-09T08:04:56.068Z,91.38
2022-09-09T08:05:56.053Z,91.72
2022-09-09T08:06:56.038Z,91.72
2022-09-09T08:07:56.022Z,91.72
2022-09-09T08:08:56.010Z,91.91
2022-09-09T08:09:55.997Z,91.42
2022-09-09T08:10:55.988Z,91.72
2022-09-09T08:11:55.967Z,91.42
2022-09-09T08:13:14.991Z,91.72
2022-09-09T08:14:00.247Z,91.14
2022-09-09T08:14:56.100Z,90.95
2022-09-09T08:15:56.850Z,91.24
2022-09-09T08:16:55.903Z,91.05
2022-09-09T08:17:55.891Z,91.28
2022-09-09T08:18:55.875Z,91.24
2022-09-09T08:19:55.861Z,91.09
2022-09-09T08:20:55.856Z,90.32
2022-09-09T08:21:55.836Z,90.03
2022-09-09T08:22:55.824Z,89.89
2022-09-09T08:23:57.930Z,89.50
2022-09-09T08:24:55.798Z,89.40
2022-09-09T08:25:55.787Z,89.40
2022-09-09T08:26:55.770Z,89.02
2022-09-09T08:27:55.758Z,88.35
2022-09-09T08:28:55.744Z,88.54
2022-09-09T08:29:55.743Z,88.35
2022-09-09T08:30:55.773Z,88.45
2022-09-09T08:31:55.713Z,88.45
2022-09-09T08:32:55.693Z,88.25
2022-09-09T08:33:55.680Z,88.06
2022-09-09T08:35:01.062Z,88.06
2022-09-09T08:35:55.652Z,87.77
2022-09-09T08:36:55.638Z,87.92
2022-09-09T08:37:55.626Z,87.92
2022-09-09T08:38:55.616Z,87.24
2022-09-09T08:39:55.645Z,86.38
2022-09-09T08:40:55.608Z,86.32
2022-09-09T08:41:55.579Z,85.65
2022-09-09T08:42:55.567Z,85.27
2022-09-09T08:43:55.551Z,84.88
2022-09-09T08:44:55.538Z,84.54
2022-09-09T08:45:55.526Z,83.44
2022-09-09T08:46:55.517Z,81.94
2022-09-09T08:47:55.501Z,82.32
2022-09-09T08:48:55.489Z,81.99
2022-09-09T08:49:55.483Z,81.04
2022-09-09T08:50:55.463Z,81.42
2022-09-09T08:51:55.452Z,81.42
2022-09-09T08:52:55.441Z,81.71
2022-09-09T08:53:59.561Z,81.71
2022-09-09T08:54:55.412Z,80.65
2022-09-09T08:55:55.401Z,80.65
2022-09-09T08:56:55.390Z,80.65
2022-09-09T08:57:55.380Z,80.55
2022-09-09T08:58:55.365Z,80.46
2022-09-09T08:59:55.354Z,80.75
2022-09-09T09:00:55.338Z,80.55
2022-09-09T09:01:55.371Z,80.84
2022-09-09T09:02:55.315Z,80.36
2022-09-09T09:03:55.303Z,81.32
2022-09-09T09:04:55.347Z,81.23
2022-09-09T09:05:55.279Z,81.04
2022-09-09T09:06:55.275Z,81.23
2022-09-09T09:07:55.255Z,81.13
2022-09-09T09:08:55.240Z,80.65
2022-09-09T09:09:55.225Z,80.75
2022-09-09T09:10:55.214Z,80.84
2022-09-09T09:11:55.206Z,80.55
2022-09-09T09:12:55.189Z,80.84
2022-09-09T09:13:55.185Z,80.60
2022-09-09T09:14:55.179Z,78.86
2022-09-09T09:15:55.208Z,78.96
2022-09-09T09:16:55.141Z,79.25
2022-09-09T09:17:55.146Z,79.38
2022-09-09T09:18:55.132Z,79.03
2022-09-09T09:19:55.106Z,76.38
2022-09-09T09:20:55.098Z,75.45
2022-09-09T09:21:55.092Z,74.14
2022-09-09T09:22:55.073Z,74.27
2022-09-09T09:23:55.057Z,73.11
2022-09-09T09:24:55.046Z,70.45
2022-09-09T09:25:55.036Z,70.20
2022-09-09T09:26:55.053Z,70.23
2022-09-09T09:27:55.014Z,66.75
2022-09-09T09:28:55.003Z,65.92
2022-09-09T09:30:20.320Z,66.30
2022-09-09T09:30:55.066Z,66.53
2022-09-09T09:31:54.974Z,65.69
2022-09-09T09:32:54.966Z,64.75
2022-09-09T09:33:54.957Z,62.72
2022-09-09T09:34:54.946Z,62.04
2022-09-09T09:35:54.939Z,61.01
2022-09-09T09:36:54.928Z,60.14
2022-09-09T09:40:54.889Z,60.69
2022-09-09T09:41:54.885Z,60.78
2022-09-09T09:42:54.889Z,60.01
2022-09-09T09:43:54.884Z,59.72
2022-09-09T09:44:54.855Z,58.01
2022-09-09T09:46:16.386Z,57.23
2022-09-09T09:46:54.873Z,56.56
2022-09-09T09:48:00.077Z,56.34
2022-09-09T09:48:54.822Z,56.75
2022-09-09T09:49:54.815Z,57.88
2022-09-09T09:50:54.806Z,58.44
2022-09-09T09:51:54.798Z,58.44
2022-09-09T09:52:54.792Z,59.31
2022-09-09T09:53:54.788Z,59.21
2022-09-09T09:54:54.772Z,58.72
2022-09-09T09:55:54.769Z,58.53
2022-09-09T09:56:54.761Z,57.76
2022-09-09T09:57:54.810Z,57.66
2022-09-09T09:58:54.737Z,57.66
2022-09-09T09:59:54.736Z,57.86
2022-09-09T10:00:54.725Z,57.69
2022-09-09T10:01:54.814Z,57.01
2022-09-09T10:02:54.704Z,56.43
2022-09-09T10:03:54.707Z,55.56
2022-09-09T10:04:54.712Z,55.82
2022-09-09T10:05:54.681Z,55.82
2022-09-09T10:06:54.670Z,56.18
2022-09-09T10:07:54.669Z,56.18
2022-09-09T10:08:54.659Z,55.79
2022-09-09T10:09:54.646Z,56.25
2022-09-09T10:10:54.639Z,56.83
2022-09-09T10:11:54.628Z,56.80
2022-09-09T10:12:54.619Z,57.77
2022-09-09T10:13:54.611Z,58.64
2022-09-09T10:14:54.602Z,58.90
2022-09-09T10:15:54.652Z,59.86
2022-09-09T10:16:54.586Z,59.55
2022-09-09T10:17:54.578Z,59.64
2022-09-09T10:18:54.567Z,59.93
2022-09-09T10:19:54.554Z,60.61
2022-09-09T10:20:54.546Z,61.47
2022-09-09T10:21:54.536Z,61.67
2022-09-09T10:22:54.523Z,61.28
2022-09-09T10:23:54.516Z,60.38
2022-09-09T10:24:54.504Z,60.09
2022-09-09T10:25:54.497Z,59.63
2022-09-09T10:26:54.488Z,59.56
2022-09-09T10:27:58.981Z,58.82
2022-09-09T10:28:54.467Z,58.17
2022-09-09T10:29:54.462Z,56.85
2022-09-09T10:30:54.525Z,56.34
2022-09-09T10:31:54.443Z,56.14
2022-09-09T10:32:54.432Z,56.40
2022-09-09T10:33:54.430Z,56.86
2022-09-09T10:34:54.416Z,57.82
2022-09-09T10:35:54.414Z,58.21
2022-09-09T10:36:54.399Z,58.02
2022-09-09T10:37:54.388Z,57.66
2022-09-09T10:38:54.392Z,58.12
2022-09-09T10:39:54.398Z,57.05
2022-09-09T10:40:54.365Z,57.60
2022-09-09T10:41:54.355Z,57.79
2022-09-09T10:42:54.344Z,57.87
2022-09-09T10:43:58.461Z,58.06
2022-09-09T10:44:54.322Z,59.09
2022-09-09T10:45:54.423Z,59.51
2022-09-09T10:46:54.305Z,59.12
2022-09-09T10:47:54.298Z,57.79
2022-09-09T10:48:54.299Z,57.21
2022-09-09T10:49:54.278Z,57.21
2022-09-09T10:51:00.654Z,57.79
2022-09-09T10:51:54.262Z,57.92
2022-09-09T10:52:54.250Z,58.02
2022-09-09T10:53:54.244Z,57.86
2022-09-09T10:54:54.232Z,57.40
2022-09-09T10:55:54.223Z,55.49
2022-09-09T10:56:54.219Z,54.13
2022-09-09T10:57:54.208Z,53.67
2022-09-09T10:58:54.195Z,53.49
2022-09-09T10:59:54.193Z,52.71
2022-09-09T11:00:58.021Z,52.71
2022-09-09T11:01:54.223Z,53.29
2022-09-09T11:02:54.171Z,53.09
2022-09-09T11:03:54.157Z,53.12
2022-09-09T11:04:54.152Z,52.06
2022-09-09T11:05:54.162Z,51.67
2022-09-09T11:06:54.135Z,52.47
2022-09-09T11:07:54.127Z,51.50
2022-09-09T11:08:56.569Z,50.72
2022-09-09T11:09:54.114Z,51.43
2022-09-09T11:10:54.104Z,50.56
2022-09-09T11:11:54.900Z,50.56
2022-09-09T11:12:54.090Z,50.94
2022-09-09T11:13:54.106Z,50.65
2022-09-09T11:14:55.541Z,51.16
2022-09-09T11:15:54.075Z,50.48
2022-09-09T11:16:54.092Z,50.80
2022-09-09T11:17:54.223Z,50.51
2022-09-09T11:18:54.043Z,50.82
2022-09-09T11:19:54.040Z,49.37
2022-09-09T11:20:54.033Z,46.57
2022-09-09T11:21:54.027Z,45.87
2022-09-09T11:22:54.094Z,46.06
2022-09-09T11:23:54.131Z,45.38
2022-09-09T11:24:54.035Z,45.84
2022-09-09T11:25:54.000Z,46.11
2022-09-09T11:26:54.023Z,45.82
2022-09-09T11:27:54.065Z,46.41
2022-09-09T11:28:54.017Z,46.60
2022-09-09T11:29:53.979Z,46.11
2022-09-09T11:30:56.806Z,45.34
2022-09-09T11:31:54.012Z,46.11
2022-09-09T11:32:53.957Z,45.14
2022-09-09T11:33:53.953Z,45.82
2022-09-09T11:34:53.966Z,45.65
2022-09-09T11:35:53.938Z,44.87
2022-09-09T11:36:53.938Z,45.36
2022-09-09T11:37:53.927Z,45.84
2022-09-09T11:38:53.972Z,46.15
2022-09-09T11:39:53.942Z,45.77
2022-09-09T11:40:53.912Z,44.82
2022-09-09T11:41:53.903Z,44.33
2022-09-09T11:42:53.896Z,43.75
2022-09-09T11:43:53.895Z,43.55
2022-09-09T11:44:53.883Z,43.55
2022-09-09T11:45:58.660Z,43.19
2022-09-09T11:46:53.872Z,43.09
2022-09-09T11:47:53.867Z,43.19
2022-09-09T11:48:53.860Z,42.80
2022-09-09T11:49:53.870Z,42.60
2022-09-09T11:50:53.854Z,42.70
2022-09-09T11:51:53.845Z,43.58
2022-09-09T11:52:53.843Z,43.29
2022-09-09T11:53:53.833Z,43.21
2022-09-09T11:54:53.829Z,43.21
2022-09-09T11:55:53.824Z,43.01
2022-09-09T11:56:53.826Z,42.70
2022-09-09T11:57:53.813Z,43.09
2022-09-09T11:58:53.808Z,42.21
2022-09-09T11:59:53.806Z,42.29
2022-09-09T12:00:53.840Z,42.41
2022-09-09T12:01:53.793Z,41.63
2022-09-09T12:02:53.784Z,42.39
2022-09-09T12:03:53.863Z,42.08
2022-09-09T12:04:53.853Z,43.20
2022-09-09T12:05:53.771Z,44.07
2022-09-09T12:06:53.761Z,44.92
2022-09-09T12:07:53.756Z,45.78
2022-09-09T12:08:53.747Z,46.26
2022-09-09T12:09:53.741Z,46.53
2022-09-09T12:10:53.742Z,46.72
2022-09-09T12:11:53.727Z,47.50
2022-09-09T12:12:53.721Z,47.57
2022-09-09T12:13:53.808Z,46.97
2022-09-09T12:14:53.707Z,45.88
2022-09-09T12:15:53.701Z,46.34
2022-09-09T12:16:53.739Z,47.48
2022-09-09T12:17:53.693Z,48.13
2022-09-09T12:18:53.709Z,49.19
2022-09-09T12:19:53.698Z,49.85
2022-09-09T12:20:53.662Z,50.81
2022-09-09T12:21:53.692Z,51.37
2022-09-09T12:22:53.644Z,52.23
2022-09-09T12:23:53.634Z,52.40
2022-09-09T12:24:53.662Z,53.08
2022-09-09T12:25:53.617Z,53.47
2022-09-09T12:26:53.607Z,53.85
2022-09-09T12:27:53.597Z,54.72
2022-09-09T12:28:53.670Z,54.98
2022-09-09T12:29:53.755Z,54.98
2022-09-09T12:30:53.605Z,54.98
2022-09-09T12:31:53.558Z,54.88
2022-09-09T12:32:53.551Z,55.34
2022-09-09T12:33:53.543Z,55.92
2022-09-09T12:34:53.529Z,56.30
2022-09-09T12:35:53.519Z,56.59
2022-09-09T12:36:53.996Z,56.69
2022-09-09T12:37:53.499Z,57.37
2022-09-09T12:38:53.487Z,56.85
2022-09-09T12:39:53.523Z,55.89
2022-09-09T12:40:53.464Z,56.27
2022-09-09T12:41:53.462Z,56.47
2022-09-09T12:42:53.444Z,56.66
2022-09-09T12:43:53.611Z,55.89
2022-09-09T12:44:53.427Z,56.47
2022-09-09T12:45:53.445Z,56.47
2022-09-09T12:46:53.420Z,56.47
2022-09-09T12:47:53.428Z,56.35
2022-09-09T12:48:53.381Z,56.63
2022-09-09T12:49:53.374Z,56.63
2022-09-09T12:50:53.355Z,57.21
2022-09-09T12:51:53.349Z,57.60
2022-09-09T12:52:53.380Z,57.40
2022-09-09T12:53:53.323Z,57.89
2022-09-09T12:54:53.318Z,57.79
2022-09-09T12:55:53.299Z,57.86
2022-09-09T12:56:53.290Z,57.86
2022-09-09T12:57:53.282Z,57.95
2022-09-09T12:58:53.310Z,58.34
2022-09-09T12:59:53.268Z,57.86
2022-09-09T13:00:53.440Z,58.05
2022-09-09T13:01:53.344Z,58.05
2022-09-09T13:02:53.262Z,57.95
2022-09-09T13:03:53.221Z,57.86
2022-09-09T13:04:53.201Z,57.76
2022-09-09T13:05:53.183Z,57.37
2022-09-09T13:06:53.180Z,57.37